Impacts METAR Board
IDs:

KPSN - Palestine Muni, TX, US

Updated at: 1300 UTC 14 Dec 2019
Potential Impact None Slight Moderate High
Time 14/01Z 14/02Z 14/03Z 14/04Z 14/05Z 14/06Z 14/07Z 14/08Z 14/09Z 14/10Z 14/11Z 14/12Z 14/13Z
Temp56 48 46 44 42 43 43 41 42 39 38 38 35
Dewpt47 45 44 43 41 43 42 41 42 39 38 38 35
Altim29.86 29.87 29.88 29.88 29.89 29.88 29.87 29.88 29.88 29.90 29.87 29.89 29.92
VIS10 10 10 10 10 7 10 7 4 1 10 1 0.5
CIG-- -- -- -- -- -- -- -- -- 7 -- 7 1
CoverCLRCLRCLRCLRCLRCLRCLRCLRCLROVXCLROVXOVC
FltCatVFRVFRVFRVFRVFRVFRVFRVFRMVFRIFRVFRIFRLIFR
WX----------------BRBR--BRFG
WDir29003400000000000
WSpd3 0 3 0 0 0 0 0 0 0 0 0 0
WGst-- -- -- -- -- -- -- -- -- -- -- -- --
Raw hourly METARs
KPSN 140055Z AUTO 29003KT 10SM CLR 13/08 A2986 RMK AO2 T01360084
KPSN 140155Z AUTO 00000KT 10SM CLR 08/07 A2987 RMK AO2 T00890073
KPSN 140255Z AUTO 34003KT 10SM CLR 07/06 A2988 RMK AO2 T00750064
KPSN 140355Z AUTO 00000KT 10SM CLR 06/06 A2988 RMK AO2 T00640060
KPSN 140455Z AUTO 00000KT 10SM CLR 05/05 A2989 RMK AO2 T00530050
KPSN 140555Z AUTO 00000KT 7SM CLR 06/06 A2988 RMK AO2 T00610061
KPSN 140655Z AUTO 00000KT 10SM CLR 06/05 A2987 RMK AO2 T00590058
KPSN 140755Z AUTO 00000KT 7SM CLR 05/05 A2988 RMK AO2 T00510050
KPSN 140855Z AUTO 00000KT 4SM BR CLR 05/05 A2988 RMK AO2 T00570057
KPSN 140955Z AUTO 00000KT 1SM BR VV007 03/03 A2990 RMK AO2 T00380038
KPSN 141055Z AUTO 00000KT 10SM CLR 03/03 A2987 RMK AO2 T00330033
KPSN 141155Z AUTO 00000KT 1SM BR VV007 03/03 A2989 RMK AO2 T00330033
KPSN 141255Z AUTO 00000KT 1/2SM FG OVC001 01/01 A2992 RMK AO2 T00160016



Page loaded:  13:36 UTC  |   05:36 AM Pacific  |   06:36 AM Mountain  |   07:36 AM Central  |   08:36 AM Eastern

 

ADVISORIES

FORECASTS

FORECASTS

OBSERVATIONS

USER TOOLS

ABOUT US